createdAt,value
2022-08-26T00:04:49.388Z,22.40
2022-08-26T00:09:54.492Z,22.39
2022-08-26T00:15:00.679Z,22.35
2022-08-26T00:20:06.604Z,22.27
2022-08-26T00:25:12.144Z,22.19
2022-08-26T00:30:22.717Z,22.24
2022-08-26T00:35:29.359Z,22.18
2022-08-26T00:40:40.649Z,22.19
2022-08-26T00:45:49.737Z,22.14
2022-08-26T00:50:57.417Z,22.10
2022-08-26T00:56:04.644Z,22.11
2022-08-26T01:01:11.483Z,22.14
2022-08-26T01:06:16.292Z,21.96
2022-08-26T01:11:21.850Z,22.00
2022-08-26T01:16:27.865Z,21.97
2022-08-26T01:21:40.584Z,21.95
2022-08-26T01:26:46.618Z,21.87
2022-08-26T01:42:12.084Z,21.78
2022-08-26T01:47:18.120Z,21.75
2022-08-26T01:52:28.049Z,21.75
2022-08-26T01:57:33.883Z,21.66
2022-08-26T02:02:38.275Z,21.70
2022-08-26T02:07:43.121Z,21.68
2022-08-26T02:12:48.196Z,21.62
2022-08-26T02:17:53.242Z,21.60
2022-08-26T02:22:56.971Z,21.58
2022-08-26T02:28:02.316Z,21.55
2022-08-26T02:33:06.992Z,21.47
2022-08-26T02:38:11.649Z,21.47
2022-08-26T02:43:16.982Z,21.43
2022-08-26T02:48:22.557Z,21.41
2022-08-26T02:53:26.304Z,21.37
2022-08-26T02:58:33.253Z,21.37
2022-08-26T03:03:37.815Z,21.32
2022-08-26T03:08:42.525Z,21.32
2022-08-26T03:13:48.362Z,21.24
2022-08-26T03:18:52.625Z,21.20
2022-08-26T03:23:58.696Z,21.15
2022-08-26T03:29:22.623Z,21.11
2022-08-26T03:34:26.349Z,21.11
2022-08-26T03:39:31.434Z,21.09
2022-08-26T03:44:37.399Z,21.05
2022-08-26T03:49:45.852Z,21.11
2022-08-26T03:54:49.762Z,21.15
2022-08-26T03:59:54.809Z,21.13
2022-08-26T04:04:58.639Z,21.12
2022-08-26T04:10:02.324Z,21.12
2022-08-26T04:15:10.944Z,21.07
2022-08-26T04:20:18.040Z,21.11
2022-08-26T04:25:22.535Z,21.08
2022-08-26T04:30:29.311Z,20.99
2022-08-26T04:35:34.315Z,21.06
2022-08-26T04:40:38.866Z,20.98
2022-08-26T04:45:44.460Z,20.91
2022-08-26T04:50:49.351Z,20.90
2022-08-26T04:55:55.194Z,20.89
2022-08-26T05:01:00.482Z,20.86
2022-08-26T05:06:05.972Z,20.80
2022-08-26T05:11:10.510Z,20.72
2022-08-26T05:16:17.129Z,20.70
2022-08-26T05:21:23.572Z,20.64
2022-08-26T05:26:29.663Z,20.58
2022-08-26T05:31:35.692Z,20.57
2022-08-26T05:36:40.204Z,20.61
2022-08-26T05:41:44.743Z,20.64
2022-08-26T05:46:50.084Z,20.66
2022-08-26T05:51:55.091Z,20.73
2022-08-26T05:56:58.848Z,20.75
2022-08-26T06:02:04.685Z,20.77
2022-08-26T06:07:09.903Z,20.76
2022-08-26T06:12:15.783Z,20.73
2022-08-26T06:17:23.616Z,20.76
2022-08-26T06:22:46.441Z,20.82
2022-08-26T06:27:51.347Z,20.90
2022-08-26T06:32:56.602Z,21.01
2022-08-26T06:38:02.528Z,21.11
2022-08-26T06:43:07.318Z,21.15
2022-08-26T06:48:13.223Z,21.27
2022-08-26T06:53:18.079Z,21.36
2022-08-26T06:58:22.145Z,21.25
2022-08-26T07:03:27.327Z,21.20
2022-08-26T07:08:32.640Z,21.35
2022-08-26T07:13:38.820Z,21.37
2022-08-26T07:18:45.886Z,21.45
2022-08-26T07:23:49.854Z,21.50
2022-08-26T07:28:55.750Z,21.60
2022-08-26T07:34:00.854Z,21.66
2022-08-26T07:39:05.077Z,21.59
2022-08-26T07:44:08.905Z,21.62
2022-08-26T07:49:15.786Z,21.59
2022-08-26T07:54:20.175Z,21.64
2022-08-26T07:59:30.637Z,21.65
2022-08-26T08:04:36.424Z,21.57
2022-08-26T08:09:40.657Z,21.62
2022-08-26T08:14:45.427Z,21.55
2022-08-26T08:19:50.521Z,21.48
2022-08-26T08:24:54.604Z,21.40
2022-08-26T08:29:58.435Z,21.36
2022-08-26T08:35:10.724Z,21.33
2022-08-26T08:40:18.437Z,21.32
2022-08-26T08:45:34.492Z,21.48
2022-08-26T08:50:45.775Z,21.56
2022-08-26T08:56:05.047Z,21.65
2022-08-26T09:01:17.183Z,21.76
2022-08-26T09:06:22.472Z,21.86
2022-08-26T09:11:26.441Z,22.00
2022-08-26T09:16:43.123Z,22.09
2022-08-26T09:21:56.774Z,22.07
2022-08-26T09:27:00.725Z,22.18
2022-08-26T09:32:22.136Z,22.23
2022-08-26T09:37:43.175Z,22.26
2022-08-26T09:42:48.217Z,22.36
2022-08-26T09:47:56.019Z,22.65
2022-08-26T09:53:09.884Z,22.81
2022-08-26T09:58:32.621Z,22.92
2022-08-26T10:03:39.082Z,22.87
2022-08-26T10:08:47.423Z,22.94
2022-08-26T10:13:57.956Z,23.08
2022-08-26T10:19:07.564Z,23.09
2022-08-26T10:24:20.289Z,23.00
2022-08-26T10:29:34.324Z,22.98
2022-08-26T10:34:38.105Z,23.00
2022-08-26T10:39:56.878Z,23.07
2022-08-26T10:45:11.736Z,23.08
2022-08-26T10:50:18.035Z,23.09
2022-08-26T10:55:35.751Z,23.03
2022-08-26T11:01:02.371Z,23.15
2022-08-26T11:06:22.303Z,23.12
2022-08-26T11:11:47.975Z,23.17
2022-08-26T11:16:53.341Z,23.27
2022-08-26T11:22:06.780Z,23.34
2022-08-26T11:27:33.497Z,23.31
2022-08-26T11:32:51.275Z,23.32
2022-08-26T11:37:58.265Z,23.18
2022-08-26T11:43:07.414Z,23.10
2022-08-26T11:48:23.947Z,23.11
2022-08-26T11:53:30.192Z,23.13
2022-08-26T11:58:35.526Z,23.06
2022-08-26T12:03:48.187Z,22.98
2022-08-26T12:08:54.611Z,22.91
2022-08-26T12:14:00.421Z,22.85
2022-08-26T12:19:25.165Z,22.93
2022-08-26T12:24:29.316Z,23.03
2022-08-26T12:29:33.155Z,23.01
2022-08-26T12:34:38.443Z,23.18
2022-08-26T12:39:44.406Z,23.10
2022-08-26T12:44:53.410Z,23.15
2022-08-26T12:50:05.927Z,23.17
2022-08-26T12:55:22.120Z,23.33
2022-08-26T13:00:39.290Z,23.23
2022-08-26T13:05:44.385Z,23.37
2022-08-26T13:10:48.774Z,23.38
2022-08-26T13:15:52.581Z,23.31
2022-08-26T13:20:58.232Z,23.31
2022-08-26T13:26:01.967Z,23.32
2022-08-26T13:31:06.013Z,23.18
2022-08-26T13:36:11.633Z,23.00
2022-08-26T13:41:15.415Z,22.92
2022-08-26T13:46:20.903Z,23.06
2022-08-26T13:51:27.990Z,23.12
2022-08-26T13:56:32.589Z,23.17
2022-08-26T14:01:38.077Z,23.20
2022-08-26T14:06:43.215Z,23.18
2022-08-26T14:11:54.588Z,23.23
2022-08-26T14:17:00.402Z,23.17
2022-08-26T14:22:05.939Z,23.21
2022-08-26T14:27:09.775Z,23.10
2022-08-26T14:32:18.890Z,23.04
2022-08-26T14:37:26.887Z,23.09
2022-08-26T14:42:31.405Z,23.01
2022-08-26T14:47:35.437Z,23.12
2022-08-26T14:52:54.762Z,23.25
2022-08-26T14:57:58.498Z,23.44
2022-08-26T15:03:02.475Z,23.37
2022-08-26T15:08:10.803Z,23.39
2022-08-26T15:13:14.861Z,23.48
2022-08-26T15:18:18.706Z,23.49
2022-08-26T15:23:23.985Z,23.55
2022-08-26T15:28:27.850Z,23.51
2022-08-26T15:33:31.676Z,23.54
2022-08-26T15:38:39.567Z,23.54
2022-08-26T15:43:43.294Z,23.52
2022-08-26T15:48:47.209Z,23.46
2022-08-26T15:53:52.987Z,23.34
2022-08-26T15:58:57.565Z,23.53
2022-08-26T16:04:02.493Z,23.48
2022-08-26T16:09:08.599Z,23.45
2022-08-26T16:14:12.415Z,23.34
2022-08-26T16:19:16.535Z,23.39
2022-08-26T16:24:24.881Z,23.32
2022-08-26T16:29:31.906Z,23.34
2022-08-26T16:34:36.006Z,23.29
2022-08-26T16:39:44.981Z,23.18
2022-08-26T16:44:49.096Z,23.01
2022-08-26T16:49:52.897Z,23.01
2022-08-26T16:54:58.452Z,22.91
2022-08-26T17:00:03.708Z,22.92
2022-08-26T17:05:09.566Z,22.89
2022-08-26T17:10:14.802Z,22.77
2022-08-26T17:15:19.445Z,22.74
2022-08-26T17:20:25.132Z,22.71
2022-08-26T17:25:32.872Z,22.66
2022-08-26T17:30:36.930Z,22.58
2022-08-26T17:35:40.768Z,22.44
2022-08-26T17:40:45.851Z,22.38
2022-08-26T17:45:50.741Z,22.33
2022-08-26T17:50:56.448Z,22.28
2022-08-26T17:56:01.637Z,22.16
2022-08-26T18:01:07.106Z,22.10
2022-08-26T18:06:12.967Z,22.09
2022-08-26T18:11:19.892Z,22.00
2022-08-26T18:16:23.693Z,21.90
2022-08-26T18:21:28.797Z,21.92
2022-08-26T18:26:36.496Z,21.83
2022-08-26T18:31:40.324Z,21.75
2022-08-26T18:36:44.930Z,21.71
2022-08-26T18:41:53.268Z,21.67
2022-08-26T18:46:57.048Z,21.65
2022-08-26T18:52:01.079Z,21.63
2022-08-26T18:57:06.600Z,21.58
2022-08-26T19:02:11.146Z,21.53
2022-08-26T19:07:15.125Z,21.52
2022-08-26T19:12:20.198Z,21.48
2022-08-26T19:17:23.970Z,21.37
2022-08-26T19:22:27.740Z,21.35
2022-08-26T19:27:33.588Z,21.32
2022-08-26T19:32:37.310Z,21.24
2022-08-26T19:37:41.111Z,21.24
2022-08-26T19:42:46.266Z,21.21
2022-08-26T19:47:50.084Z,21.10
2022-08-26T19:52:54.097Z,21.07
2022-08-26T19:57:59.281Z,21.03
2022-08-26T20:03:03.330Z,21.03
2022-08-26T20:08:07.059Z,20.94
2022-08-26T20:13:16.882Z,20.96
2022-08-26T20:18:38.180Z,20.93
2022-08-26T20:23:43.624Z,20.87
2022-08-26T20:28:51.101Z,20.87
2022-08-26T20:33:55.945Z,20.81
2022-08-26T20:38:59.944Z,20.78
2022-08-26T20:44:06.804Z,20.74
2022-08-26T20:49:10.707Z,20.71
2022-08-26T20:54:15.376Z,20.53
2022-08-26T20:59:21.550Z,20.47
2022-08-26T21:04:27.676Z,20.38
2022-08-26T21:09:31.564Z,20.24
2022-08-26T21:14:36.785Z,20.03
2022-08-26T21:19:40.615Z,19.93
2022-08-26T21:24:44.479Z,19.81
2022-08-26T21:29:49.595Z,19.67
2022-08-26T21:34:56.957Z,19.50
2022-08-26T21:40:01.924Z,19.27
2022-08-26T21:45:08.515Z,19.14
2022-08-26T21:50:13.596Z,19.17
2022-08-26T21:55:17.503Z,18.87
2022-08-26T22:00:22.744Z,18.72
2022-08-26T22:05:26.460Z,18.76
2022-08-26T22:10:30.205Z,18.80
2022-08-26T22:15:35.901Z,18.74
2022-08-26T22:20:39.664Z,18.72
2022-08-26T22:25:43.401Z,18.66
2022-08-26T22:30:48.709Z,18.59
2022-08-26T22:35:53.709Z,18.46
2022-08-26T22:40:57.880Z,18.41
2022-08-26T22:46:03.109Z,18.33
2022-08-26T22:51:07.132Z,18.26
2022-08-26T22:56:10.954Z,18.14
2022-08-26T23:01:16.906Z,18.09
2022-08-26T23:06:20.813Z,17.97
2022-08-26T23:11:24.629Z,17.93
2022-08-26T23:16:31.268Z,17.82
2022-08-26T23:21:42.134Z,17.74
2022-08-26T23:26:46.533Z,17.68
2022-08-26T23:31:51.675Z,17.66
2022-08-26T23:36:56.940Z,17.56
2022-08-26T23:42:03.349Z,17.54
2022-08-26T23:47:09.359Z,17.49
2022-08-26T23:52:30.859Z,17.45
2022-08-26T23:57:34.875Z,17.39
